createdAt,value
2023-03-05T00:01:41.902Z,6.93
2023-03-05T00:04:31.032Z,6.37
2023-03-05T00:07:19.676Z,6.53
2023-03-05T00:10:09.540Z,4.87
2023-03-05T00:12:58.493Z,6.17
2023-03-05T00:15:48.708Z,9.50
2023-03-05T00:18:37.697Z,8.93
2023-03-05T00:21:27.954Z,7.17
2023-03-05T00:24:19.324Z,8.17
2023-03-05T00:27:11.294Z,7.43
2023-03-05T00:30:00.154Z,7.27
2023-03-05T00:32:50.231Z,7.33
2023-03-05T00:35:41.498Z,7.90
2023-03-05T00:38:30.291Z,9.07
2023-03-05T00:41:19.086Z,8.07
2023-03-05T00:44:08.386Z,8.20
2023-03-05T00:46:57.105Z,8.40
2023-03-05T00:49:47.381Z,7.83
2023-03-05T00:52:36.101Z,7.87
2023-03-05T00:55:24.982Z,8.10
2023-03-05T00:58:14.255Z,7.83
2023-03-05T01:01:04.255Z,8.13
2023-03-05T01:03:53.274Z,7.30
2023-03-05T01:06:44.935Z,7.40
2023-03-05T01:09:35.724Z,6.07
2023-03-05T01:12:24.971Z,6.47
2023-03-05T01:15:13.717Z,7.00
2023-03-05T01:18:02.599Z,5.87
2023-03-05T01:20:51.283Z,7.20
2023-03-05T01:23:41.652Z,6.13
2023-03-05T01:26:30.334Z,6.30
2023-03-05T01:29:19.244Z,6.23
2023-03-05T01:32:08.685Z,6.77
2023-03-05T01:34:57.434Z,6.57
2023-03-05T01:37:46.418Z,7.67
2023-03-05T01:40:36.568Z,7.50
2023-03-05T01:43:27.506Z,6.93
2023-03-05T01:46:37.242Z,6.90
2023-03-05T01:49:27.933Z,7.53
2023-03-05T01:52:20.972Z,7.33
2023-03-05T01:55:14.878Z,7.10
2023-03-05T01:58:07.250Z,7.50
2023-03-05T02:00:57.388Z,7.37
2023-03-05T02:03:46.501Z,8.87
2023-03-05T02:06:35.678Z,7.77
2023-03-05T02:09:24.519Z,7.10
2023-03-05T02:12:14.903Z,7.67
2023-03-05T02:15:07.579Z,7.07
2023-03-05T02:17:56.772Z,7.13
2023-03-05T02:20:47.398Z,7.03
2023-03-05T02:23:39.161Z,7.43
2023-03-05T02:26:27.899Z,6.73
2023-03-05T02:29:21.009Z,7.30
2023-03-05T02:32:09.841Z,7.33
2023-03-05T02:34:58.603Z,7.33
2023-03-05T02:37:47.349Z,7.50
2023-03-05T02:40:40.883Z,7.80
2023-03-05T02:43:29.838Z,7.47
2023-03-05T02:46:19.076Z,7.20
2023-03-05T02:49:08.074Z,7.03
2023-03-05T02:51:56.959Z,7.57
2023-03-05T02:54:45.843Z,7.00
2023-03-05T02:57:35.947Z,7.90
2023-03-05T03:00:25.092Z,8.13
2023-03-05T03:03:14.505Z,7.10
2023-03-05T03:06:03.533Z,7.27
2023-03-05T03:08:52.242Z,6.80
2023-03-05T03:11:40.970Z,6.97
2023-03-05T03:14:32.889Z,7.03
2023-03-05T03:17:21.497Z,7.53
2023-03-05T03:20:15.309Z,7.20
2023-03-05T03:23:04.100Z,7.17
2023-03-05T03:25:52.838Z,6.80
2023-03-05T03:28:41.659Z,9.37
2023-03-05T03:31:32.358Z,9.27
2023-03-05T03:34:22.352Z,7.10
2023-03-05T03:37:15.041Z,8.50
2023-03-05T03:40:05.910Z,8.87
2023-03-05T03:42:58.340Z,7.27
2023-03-05T03:45:47.241Z,7.30
2023-03-05T03:48:37.370Z,7.23
2023-03-05T03:51:26.122Z,7.50
2023-03-05T03:54:15.169Z,7.67
2023-03-05T03:57:04.466Z,7.23
2023-03-05T03:59:53.154Z,7.10
2023-03-05T04:02:41.926Z,6.53
2023-03-05T04:05:32.409Z,6.53
2023-03-05T04:08:21.337Z,7.40
2023-03-05T04:11:10.319Z,6.60
2023-03-05T04:13:59.004Z,6.37
2023-03-05T04:16:47.631Z,5.97
2023-03-05T04:19:36.368Z,6.50
2023-03-05T04:22:26.447Z,6.43
2023-03-05T04:25:15.585Z,6.07
2023-03-05T04:28:04.292Z,6.67
2023-03-05T04:30:53.510Z,5.93
2023-03-05T04:33:42.199Z,6.37
2023-03-05T04:36:31.047Z,6.33
2023-03-05T04:39:21.898Z,6.27
2023-03-05T04:42:14.818Z,5.43
2023-03-05T04:45:03.940Z,6.53
2023-03-05T04:47:52.593Z,6.03
2023-03-05T04:50:41.455Z,6.87
2023-03-05T04:53:30.216Z,6.83
2023-03-05T04:56:20.322Z,6.63
2023-03-05T04:59:09.085Z,6.33
2023-03-05T05:01:58.109Z,5.83
2023-03-05T05:04:46.879Z,6.23
2023-03-05T05:07:35.620Z,6.50
2023-03-05T05:10:24.695Z,6.80
2023-03-05T05:13:14.720Z,5.83
2023-03-05T05:16:03.695Z,6.27
2023-03-05T05:18:52.394Z,5.97
2023-03-05T05:21:41.211Z,6.00
2023-03-05T05:24:30.155Z,5.67
2023-03-05T05:27:18.882Z,5.63
2023-03-05T05:30:10.731Z,5.47
2023-03-05T05:33:02.877Z,6.03
2023-03-05T05:35:52.127Z,6.83
2023-03-05T05:38:40.957Z,6.13
2023-03-05T05:41:29.978Z,5.33
2023-03-05T05:44:19.465Z,5.97
2023-03-05T05:47:09.609Z,5.80
2023-03-05T05:49:58.740Z,5.30
2023-03-05T05:52:47.935Z,5.43
2023-03-05T05:55:36.678Z,5.97
2023-03-05T05:58:25.676Z,5.50
2023-03-05T06:01:16.332Z,5.10
2023-03-05T06:04:06.502Z,5.10
2023-03-05T06:06:55.406Z,5.10
2023-03-05T06:09:44.416Z,5.63
2023-03-05T06:12:33.400Z,5.10
2023-03-05T06:15:22.749Z,5.10
2023-03-05T06:18:11.423Z,4.80
2023-03-05T06:21:03.232Z,5.03
2023-03-05T06:23:52.455Z,5.13
2023-03-05T06:26:41.630Z,4.90
2023-03-05T06:29:30.339Z,5.10
2023-03-05T06:32:19.296Z,5.40
2023-03-05T06:35:09.476Z,5.27
2023-03-05T06:37:59.711Z,5.40
2023-03-05T06:40:48.392Z,4.80
2023-03-05T06:43:38.684Z,4.77
2023-03-05T06:46:29.162Z,5.23
2023-03-05T06:49:17.921Z,5.27
2023-03-05T06:52:10.179Z,4.83
2023-03-05T06:55:00.239Z,4.57
2023-03-05T06:57:49.063Z,6.07
2023-03-05T07:00:37.803Z,4.90
2023-03-05T07:03:26.449Z,4.73
2023-03-05T07:06:16.286Z,4.50
2023-03-05T07:09:07.002Z,4.57
2023-03-05T07:11:57.056Z,5.03
2023-03-05T07:14:45.809Z,4.10
2023-03-05T07:17:34.512Z,4.47
2023-03-05T07:20:23.297Z,4.60
2023-03-05T07:23:12.133Z,4.30
2023-03-05T07:26:03.641Z,4.83
2023-03-05T07:28:53.928Z,4.27
2023-03-05T07:31:42.760Z,3.73
2023-03-05T07:34:31.512Z,4.57
2023-03-05T07:37:20.245Z,4.50
2023-03-05T07:40:10.453Z,4.13
2023-03-05T07:42:59.087Z,4.23
2023-03-05T07:45:54.088Z,4.33
2023-03-05T07:48:42.846Z,4.57
2023-03-05T07:51:32.237Z,4.40
2023-03-05T07:54:21.083Z,4.27
2023-03-05T07:57:12.587Z,4.70
2023-03-05T08:00:01.343Z,6.10
2023-03-05T08:03:02.339Z,5.63
2023-03-05T08:05:51.123Z,5.43
2023-03-05T08:08:40.157Z,5.70
2023-03-05T08:11:29.871Z,5.13
2023-03-05T08:14:18.667Z,6.10
2023-03-05T08:17:09.102Z,5.63
2023-03-05T08:20:00.338Z,4.97
2023-03-05T08:22:49.543Z,5.83
2023-03-05T08:25:38.991Z,5.03
2023-03-05T08:28:27.852Z,5.50
2023-03-05T08:31:17.716Z,5.60
2023-03-05T08:34:11.601Z,5.07
2023-03-05T08:37:02.019Z,5.33
2023-03-05T08:39:50.818Z,5.87
2023-03-05T08:42:39.591Z,6.17
2023-03-05T08:45:28.872Z,5.43
2023-03-05T08:48:17.553Z,6.40
2023-03-05T08:51:08.103Z,6.30
2023-03-05T08:54:00.329Z,6.37
2023-03-05T08:56:50.161Z,6.27
2023-03-05T08:59:38.896Z,5.97
2023-03-05T09:02:27.718Z,6.70
2023-03-05T09:05:16.472Z,5.90
2023-03-05T09:08:05.399Z,6.60
2023-03-05T09:10:55.691Z,6.37
2023-03-05T09:13:44.583Z,6.53
2023-03-05T09:16:33.706Z,6.77
2023-03-05T09:19:22.748Z,6.90
2023-03-05T09:22:11.476Z,6.80
2023-03-05T09:25:00.305Z,7.13
